Terminal Aerodrome Forecast
Issued by NWS Quad Cities IA IL

Home | Current Version | Previous Version | Text Only | Print | Product List | Glossary On
Versions: 1 2 3 4 5 6 7 8 9 10 11 12 13 14 15 16 17 18 19 20 21
000
FTUS43 KDVN 181700
TAFDBQ
TAF
KDBQ 181720Z 1818/1918 20010KT 6SM HZ BKN018
     FM181900 21008KT P6SM SCT020
      TEMPO 1900/1904 3SM -TSRA BR BKN025CB
     FM190400 24005KT 6SM BR BKN040
     FM190900 23006KT 4SM BR BKN015
     FM191500 26008KT 6SM HZ BKN040=

USA.gov is the U.S. government's official web portal to all federal, state and local government web resources and services.